createdAt,value
2023-02-22T00:02:27.201Z,100597.84
2023-02-22T00:06:31.146Z,100590.34
2023-02-22T00:10:34.189Z,100585.28
2023-02-22T00:14:37.333Z,100585.78
2023-02-22T00:18:41.798Z,100577.88
2023-02-22T00:22:47.463Z,100573.88
2023-02-22T00:26:51.911Z,100572.44
2023-02-22T00:30:55.434Z,100563.53
2023-02-22T00:35:00.107Z,100564.94
2023-02-22T00:39:03.159Z,100561.84
2023-02-22T00:43:07.195Z,100563.53
2023-02-22T00:47:10.716Z,100576.31
2023-02-22T00:51:15.425Z,100564.94
2023-02-22T00:55:21.077Z,100563.25
2023-02-22T00:59:24.123Z,100578.44
2023-02-22T01:03:27.296Z,100563.53
2023-02-22T01:07:34.810Z,100553.97
2023-02-22T01:11:37.941Z,100554.16
2023-02-22T01:15:43.187Z,100544.41
2023-02-22T01:19:46.528Z,100535.88
2023-02-22T01:23:51.960Z,100533.34
2023-02-22T01:27:56.033Z,100527.72
2023-02-22T01:31:59.206Z,100517.69
2023-02-22T01:36:02.388Z,100523.13
2023-02-22T01:40:09.375Z,100520.88
2023-02-22T01:44:27.031Z,100505.69
2023-02-22T01:48:36.884Z,100517.31
2023-02-22T01:52:40.067Z,100507.66
2023-02-22T01:56:51.216Z,100513.84
2023-02-22T02:00:57.680Z,100511.69
2023-02-22T02:05:01.279Z,100517.78
2023-02-22T02:09:11.310Z,100520.88
2023-02-22T02:13:16.785Z,100515.81
2023-02-22T02:17:24.572Z,100509.06
2023-02-22T02:21:49.937Z,100509.25
2023-02-22T02:26:18.493Z,100505.59
2023-02-22T02:30:50.800Z,100509.16
2023-02-22T02:35:02.105Z,100502.50
2023-02-22T02:39:11.310Z,100506.53
2023-02-22T02:43:22.807Z,100497.16
2023-02-22T02:47:30.109Z,100491.00
2023-02-22T02:51:38.697Z,100485.56
2023-02-22T02:55:41.761Z,100489.75
2023-02-22T02:59:44.933Z,100483.31
2023-02-22T03:03:58.916Z,100478.31
2023-02-22T03:08:10.921Z,100477.94
2023-02-22T03:12:29.636Z,100481.13
2023-02-22T03:16:38.922Z,100475.97
2023-02-22T03:20:47.712Z,100477.91
2023-02-22T03:24:59.177Z,100475.47
2023-02-22T03:29:05.308Z,100480.94
2023-02-22T03:33:12.979Z,100484.16
2023-02-22T03:37:19.127Z,100479.09
2023-02-22T03:41:26.253Z,100475.47
2023-02-22T03:45:32.006Z,100466.88
2023-02-22T03:49:38.737Z,100460.59
2023-02-22T03:53:45.496Z,100459.41
2023-02-22T03:57:52.986Z,100458.53
2023-02-22T04:01:58.564Z,100464.84
2023-02-22T04:06:01.764Z,100459.56
2023-02-22T04:10:08.729Z,100459.19
2023-02-22T04:14:14.785Z,100453.91
2023-02-22T04:18:17.842Z,100442.19
2023-02-22T04:22:22.715Z,100445.56
2023-02-22T04:26:27.359Z,100442.00
2023-02-22T04:30:34.585Z,100435.44
2023-02-22T04:34:39.430Z,100431.31
2023-02-22T04:38:42.766Z,100420.50
2023-02-22T04:42:46.085Z,100424.97
2023-02-22T04:46:51.411Z,100420.25
2023-02-22T04:50:54.681Z,100425.16
2023-02-22T04:54:58.045Z,100417.13
2023-02-22T04:59:01.837Z,100416.25
2023-02-22T05:03:06.351Z,100410.84
2023-02-22T05:07:09.469Z,100398.19
2023-02-22T05:11:12.837Z,100402.75
2023-02-22T05:15:19.475Z,100398.31
2023-02-22T05:19:25.502Z,100396.25
2023-02-22T05:23:28.610Z,100395.91
2023-02-22T05:27:31.999Z,100396.25
2023-02-22T05:31:35.327Z,100382.72
2023-02-22T05:35:40.058Z,100383.06
2023-02-22T05:39:43.241Z,100389.59
2023-02-22T05:43:46.384Z,100383.22
2023-02-22T05:47:50.354Z,100383.91
2023-02-22T05:51:55.962Z,100374.09
2023-02-22T05:55:59.327Z,100363.56
2023-02-22T06:00:02.528Z,100369.97
2023-02-22T06:04:15.962Z,100358.34
2023-02-22T06:08:20.539Z,100355.13
2023-02-22T06:12:23.752Z,100349.00
2023-02-22T06:16:26.930Z,100344.59
2023-02-22T06:20:33.457Z,100348.66
2023-02-22T06:24:39.971Z,100338.38
2023-02-22T06:28:43.110Z,100344.59
2023-02-22T06:32:46.239Z,100339.19
2023-02-22T06:36:50.094Z,100336.47
2023-02-22T06:40:55.788Z,100345.50
2023-02-22T06:44:58.932Z,100348.88
2023-02-22T06:49:02.537Z,100348.03
2023-02-22T06:53:06.313Z,100342.97
2023-02-22T06:57:10.955Z,100343.47
2023-02-22T07:01:15.910Z,100331.41
2023-02-22T07:05:23.260Z,100334.78
2023-02-22T07:09:26.413Z,100345.59
2023-02-22T07:13:30.834Z,100347.59
2023-02-22T07:17:33.963Z,100333.38
2023-02-22T07:21:37.157Z,100333.16
2023-02-22T07:25:40.296Z,100337.53
2023-02-22T07:29:46.836Z,100340.41
2023-02-22T07:33:51.527Z,100327.72
2023-02-22T07:37:56.090Z,100329.53
2023-02-22T07:41:59.368Z,100330.50
2023-02-22T07:46:06.647Z,100325.66
2023-02-22T07:50:09.816Z,100328.97
2023-02-22T07:54:12.807Z,100325.91
2023-02-22T07:58:17.040Z,100324.44
2023-02-22T08:02:22.366Z,100321.72
2023-02-22T08:06:25.946Z,100319.19
2023-02-22T08:10:29.130Z,100318.97
2023-02-22T08:14:32.170Z,100314.94
2023-02-22T08:18:38.393Z,100313.72
2023-02-22T08:22:44.571Z,100311.16
2023-02-22T08:26:47.901Z,100318.31
2023-02-22T08:30:51.650Z,100322.75
2023-02-22T08:34:56.071Z,100332.09
2023-02-22T08:38:59.056Z,100333.56
2023-02-22T08:43:02.649Z,100339.78
2023-02-22T08:47:07.636Z,100341.22
2023-02-22T08:51:13.144Z,100332.53
2023-02-22T08:55:16.130Z,100334.94
2023-02-22T08:59:19.172Z,100318.47
2023-02-22T09:03:22.272Z,100311.16
2023-02-22T09:07:26.715Z,100317.38
2023-02-22T09:11:30.172Z,100305.06
2023-02-22T09:15:35.932Z,100306.59
2023-02-22T09:19:38.963Z,100311.81
2023-02-22T09:23:43.352Z,100310.34
2023-02-22T09:27:49.155Z,100297.16
2023-02-22T09:31:54.316Z,100241.59
2023-02-22T09:36:00.740Z,100186.66
2023-02-22T09:40:09.860Z,100162.88
2023-02-22T09:44:21.242Z,100159.41
2023-02-22T09:48:25.398Z,100152.56
2023-02-22T09:52:33.384Z,100154.94
2023-02-22T09:56:39.654Z,100152.78
2023-02-22T10:00:44.803Z,100154.63
2023-02-22T10:04:54.121Z,100147.38
2023-02-22T10:09:00.930Z,100139.16
2023-02-22T10:13:15.671Z,100134.91
2023-02-22T10:17:30.716Z,100134.00
2023-02-22T10:21:53.936Z,100131.34
2023-02-22T10:26:06.861Z,100121.34
2023-02-22T10:30:24.971Z,100130.63
2023-02-22T10:34:32.072Z,100133.88
2023-02-22T10:38:36.671Z,100128.53
2023-02-22T10:42:40.432Z,100124.59
2023-02-22T10:46:46.962Z,100121.84
2023-02-22T10:50:50.972Z,100123.69
2023-02-22T10:55:06.099Z,100115.34
2023-02-22T10:59:29.393Z,100118.03
2023-02-22T11:03:35.067Z,100119.84
2023-02-22T11:07:38.901Z,100125.69
2023-02-22T11:11:44.146Z,100116.91
2023-02-22T11:15:48.100Z,100115.69
2023-02-22T11:19:52.580Z,100122.50
2023-02-22T11:24:03.426Z,100125.44
2023-02-22T11:28:14.964Z,100115.41
2023-02-22T11:32:22.611Z,100109.09
2023-02-22T11:36:37.470Z,100101.81
2023-02-22T11:40:40.953Z,100096.81
2023-02-22T11:44:45.210Z,100092.00
2023-02-22T11:48:59.127Z,100098.75
2023-02-22T11:53:25.562Z,100094.50
2023-02-22T11:57:52.660Z,100095.91
2023-02-22T12:02:00.181Z,100093.28
2023-02-22T12:06:19.576Z,100089.75
2023-02-22T12:10:34.377Z,100088.06
2023-02-22T12:14:47.266Z,100082.00
2023-02-22T12:19:06.537Z,100074.41
2023-02-22T12:23:20.186Z,100078.41
2023-02-22T12:27:29.431Z,100075.88
2023-02-22T12:31:36.863Z,100072.06
2023-02-22T12:35:46.198Z,100082.09
2023-02-22T12:39:58.965Z,100082.91
2023-02-22T12:44:10.211Z,100078.63
2023-02-22T12:48:40.251Z,100074.06
2023-02-22T12:52:52.491Z,100081.06
2023-02-22T12:57:00.582Z,100077.59
2023-02-22T13:01:12.483Z,100071.09
2023-02-22T13:05:18.501Z,100080.06
2023-02-22T13:09:44.584Z,100068.41
2023-02-22T13:13:55.426Z,100078.88
2023-02-22T13:18:10.687Z,100071.03
2023-02-22T13:22:20.066Z,100066.13
2023-02-22T13:26:29.561Z,100073.63
2023-02-22T13:30:40.365Z,100065.00
2023-02-22T13:35:10.377Z,100063.66
2023-02-22T13:39:36.470Z,100061.72
2023-02-22T13:43:57.212Z,100057.06
2023-02-22T13:48:19.291Z,100051.66
2023-02-22T13:52:27.201Z,100048.59
2023-02-22T13:56:31.120Z,100058.34
2023-02-22T14:00:45.792Z,100058.19
2023-02-22T14:04:49.156Z,100048.66
2023-02-22T14:08:53.729Z,100042.34
2023-02-22T14:13:05.827Z,100058.09
2023-02-22T14:17:24.794Z,100051.00
2023-02-22T14:21:28.013Z,100065.84
2023-02-22T14:25:40.326Z,100058.16
2023-02-22T14:29:53.713Z,100058.03
2023-02-22T14:34:02.033Z,100048.31
2023-02-22T14:38:11.314Z,100060.16
2023-02-22T14:42:20.774Z,100058.53
2023-02-22T14:46:28.415Z,100063.09
2023-02-22T14:50:44.269Z,100063.81
2023-02-22T14:54:59.846Z,100061.25
2023-02-22T14:59:16.277Z,100064.50
2023-02-22T15:03:29.304Z,100063.53
2023-02-22T15:07:35.943Z,100067.38
2023-02-22T15:11:39.222Z,100067.56
2023-02-22T15:15:48.245Z,100068.25
2023-02-22T15:19:53.471Z,100066.78
2023-02-22T15:23:59.829Z,100076.63
2023-02-22T15:28:05.390Z,100078.19
2023-02-22T15:32:22.320Z,100072.56
2023-02-22T15:36:28.726Z,100074.72
2023-02-22T15:40:34.210Z,100067.88
2023-02-22T15:44:40.525Z,100080.09
2023-02-22T15:48:45.049Z,100075.56
2023-02-22T15:52:58.214Z,100079.06
2023-02-22T15:57:01.881Z,100083.00
2023-02-22T16:01:07.592Z,100089.91
2023-02-22T16:05:14.465Z,100090.03
2023-02-22T16:09:23.065Z,100095.53
2023-02-22T16:13:32.680Z,100091.00
2023-02-22T16:17:49.497Z,100093.63
2023-02-22T16:22:03.957Z,100105.53
2023-02-22T16:26:20.408Z,100108.09
2023-02-22T16:30:29.912Z,100102.50
2023-02-22T16:34:33.401Z,100102.25
2023-02-22T16:38:39.106Z,100108.88
2023-02-22T16:42:42.306Z,100113.28
2023-02-22T16:46:45.810Z,100119.44
2023-02-22T16:50:51.396Z,100135.50
2023-02-22T16:54:56.113Z,100140.69
2023-02-22T16:59:04.133Z,100141.00
2023-02-22T17:03:07.336Z,100147.25
2023-02-22T17:07:10.480Z,100139.03
2023-02-22T17:11:15.976Z,100151.16
2023-02-22T17:15:23.381Z,100157.78
2023-02-22T17:19:26.660Z,100165.44
2023-02-22T17:23:30.062Z,100171.84
2023-02-22T17:27:34.719Z,100169.63
2023-02-22T17:31:38.124Z,100177.44
2023-02-22T17:35:41.508Z,100187.03
2023-02-22T17:39:44.558Z,100188.81
2023-02-22T17:43:49.268Z,100204.88
2023-02-22T17:47:53.690Z,100216.53
2023-02-22T17:51:57.041Z,100225.91
2023-02-22T17:56:00.127Z,100236.91
2023-02-22T18:00:12.618Z,100244.38
2023-02-22T18:04:18.724Z,100264.84
2023-02-22T18:08:23.703Z,100267.41
2023-02-22T18:12:27.477Z,100277.47
2023-02-22T18:16:32.013Z,100282.13
2023-02-22T18:20:38.431Z,100284.66
2023-02-22T18:24:42.775Z,100282.38
2023-02-22T18:28:48.711Z,100272.50
2023-02-22T18:32:53.314Z,100284.47
2023-02-22T18:36:56.752Z,100288.06
2023-02-22T18:41:01.410Z,100293.09
2023-02-22T18:45:07.295Z,100284.94
2023-02-22T18:49:14.179Z,100286.81
2023-02-22T18:53:17.798Z,100280.72
2023-02-22T18:57:21.063Z,100285.56
2023-02-22T19:01:24.585Z,100283.44
2023-02-22T19:05:29.557Z,100278.84
2023-02-22T19:09:32.750Z,100285.97
2023-02-22T19:13:36.216Z,100291.44
2023-02-22T19:17:42.479Z,100294.59
2023-02-22T19:21:47.981Z,100300.09
2023-02-22T19:25:51.073Z,100301.56
2023-02-22T19:29:54.502Z,100308.72
2023-02-22T19:34:02.053Z,100300.31
2023-02-22T19:38:06.823Z,100291.50
2023-02-22T19:42:11.024Z,100286.03
2023-02-22T19:46:16.914Z,100284.38
2023-02-22T19:50:21.253Z,100284.78
2023-02-22T19:54:25.766Z,100289.63
2023-02-22T19:58:28.870Z,100287.28
2023-02-22T20:02:32.129Z,100279.09
2023-02-22T20:06:40.323Z,100278.47
2023-02-22T20:10:46.808Z,100275.13
2023-02-22T20:14:49.940Z,100300.75
2023-02-22T20:18:54.558Z,100293.59
2023-02-22T20:22:58.082Z,100299.91
2023-02-22T20:27:02.893Z,100303.69
2023-02-22T20:31:11.243Z,100296.34
2023-02-22T20:35:16.521Z,100304.94
2023-02-22T20:39:19.626Z,100306.41
2023-02-22T20:43:24.169Z,100301.16
2023-02-22T20:47:27.379Z,100299.91
2023-02-22T20:51:31.560Z,100307.03
2023-02-22T20:55:35.158Z,100302.81
2023-02-22T20:59:40.229Z,100312.06
2023-02-22T21:03:44.353Z,100311.88
2023-02-22T21:07:47.404Z,100307.47
2023-02-22T21:11:50.585Z,100302.41
2023-02-22T21:15:55.112Z,100309.13
2023-02-22T21:19:58.847Z,100309.53
2023-02-22T21:24:02.614Z,100304.09
2023-02-22T21:28:06.230Z,100303.66
2023-02-22T21:32:11.189Z,100305.75
2023-02-22T21:36:14.745Z,100306.00
2023-02-22T21:40:20.202Z,100302.63
2023-02-22T21:44:23.323Z,100303.69
2023-02-22T21:48:27.766Z,100305.34
2023-02-22T21:52:30.833Z,100303.88
2023-02-22T21:56:37.162Z,100304.28
2023-02-22T22:00:42.815Z,100304.09
2023-02-22T22:04:47.354Z,100309.53
2023-02-22T22:08:50.534Z,100310.19
2023-02-22T22:12:53.572Z,100307.44
2023-02-22T22:16:58.745Z,100309.13
2023-02-22T22:21:10.819Z,100305.34
2023-02-22T22:25:17.177Z,100304.09
2023-02-22T22:29:20.290Z,100302.00
2023-02-22T22:33:23.555Z,100298.22
2023-02-22T22:37:28.789Z,100300.09
2023-02-22T22:41:33.911Z,100291.91
2023-02-22T22:45:38.508Z,100294.84
2023-02-22T22:49:42.613Z,100290.22
2023-02-22T22:53:49.036Z,100293.59
2023-02-22T22:57:52.513Z,100290.63
2023-02-22T23:01:56.729Z,100300.72
2023-02-22T23:06:02.675Z,100298.41
2023-02-22T23:10:12.666Z,100296.09
2023-02-22T23:14:19.598Z,100295.28
2023-02-22T23:18:22.677Z,100298.41
2023-02-22T23:22:27.906Z,100296.53
2023-02-22T23:26:32.822Z,100297.59
2023-02-22T23:30:35.880Z,100300.31
2023-02-22T23:34:41.221Z,100309.13
2023-02-22T23:38:45.241Z,100310.19
2023-02-22T23:42:50.613Z,100313.09
2023-02-22T23:46:55.872Z,100320.47
2023-02-22T23:51:00.171Z,100316.66
2023-02-22T23:55:05.568Z,100316.25
2023-02-22T23:59:12.571Z,100320.88
